Time;durP1;ratioP1;P1;durP2;ratioP2;P2;SDS_P1;SDS_P2;PMS_P1;PMS_P2;Temp;Humidity;BMP_temperature;BMP_pressure;BME280_temperature;BME280_humidity;BME280_pressure;Samples;Min_cycle;Max_cycle;Signal;HPM_P1;HPM_P2
2022/10/03 00:02:12;;;;;;;11.65;2.78;;;18.20;99.90;;;;;;4967868;28;20023;-87
2022/10/03 00:05:01;;;;;;;14.80;3.55;;;18.20;99.90;;;;;;4974850;28;20063;-91
2022/10/03 00:07:33;;;;;;;22.15;4.43;;;18.00;99.90;;;;;;4974289;28;20033;-90
2022/10/03 00:10:07;;;;;;;19.83;3.60;;;18.00;99.90;;;;;;4969817;28;20037;-90
2022/10/03 00:12:39;;;;;;;17.90;4.32;;;17.90;99.90;;;;;;4955923;28;20099;-91
2022/10/03 00:15:14;;;;;;;20.52;3.58;;;17.90;99.90;;;;;;4973724;28;20030;-90
2022/10/03 00:18:04;;;;;;;19.85;3.90;;;17.90;99.90;;;;;;4973490;28;20030;-90
2022/10/03 00:20:45;;;;;;;23.15;3.55;;;17.90;99.90;;;;;;4974718;28;20027;-91
2022/10/03 00:23:41;;;;;;;20.75;3.85;;;17.90;99.90;;;;;;4973138;28;20078;-90
2022/10/03 00:26:58;;;;;;;24.60;4.20;;;17.90;99.90;;;;;;4973557;28;20033;-95
2022/10/03 00:29:26;;;;;;;16.80;3.83;;;17.90;99.90;;;;;;4920497;28;20039;-95
2022/10/03 00:32:12;;;;;;;17.00;3.50;;;17.90;99.90;;;;;;4973874;28;20042;-90
2022/10/03 00:34:50;;;;;;;12.65;3.88;;;17.90;99.90;;;;;;4972374;28;20054;-90
2022/10/03 00:38:03;;;;;;;16.60;3.95;;;17.90;99.90;;;;;;4974710;28;20034;-90
2022/10/03 00:41:05;;;;;;;20.10;3.95;;;18.00;99.90;;;;;;4966637;28;20219;-90
2022/10/03 00:43:55;;;;;;;17.38;3.55;;;18.00;99.90;;;;;;4949181;28;20407;-90
2022/10/03 00:46:38;;;;;;;21.75;3.50;;;18.00;99.90;;;;;;4982714;28;20038;-89
2022/10/03 00:49:25;;;;;;;15.07;3.83;;;18.00;99.90;;;;;;4973069;28;20105;-89
2022/10/03 00:52:09;;;;;;;14.48;3.00;;;18.00;99.90;;;;;;4955774;28;20054;-90
2022/10/03 00:54:46;;;;;;;15.45;3.30;;;18.00;99.90;;;;;;4969909;28;20027;-90
2022/10/03 00:57:42;;;;;;;17.85;3.65;;;18.00;99.90;;;;;;4956382;28;20034;-89
2022/10/03 01:00:30;;;;;;;16.88;3.13;;;18.00;99.90;;;;;;4967337;28;20022;-89
2022/10/03 01:03:19;;;;;;;15.20;4.15;;;18.00;99.90;;;;;;4971602;28;20050;-89
2022/10/03 01:06:00;;;;;;;15.85;3.65;;;18.10;99.90;;;;;;4972174;28;20070;-89
2022/10/03 01:09:08;;;;;;;17.35;3.63;;;18.10;99.90;;;;;;4967440;28;20472;-89
2022/10/03 01:11:43;;;;;;;17.80;3.60;;;18.10;99.90;;;;;;4970145;28;20065;-89
2022/10/03 01:14:37;;;;;;;17.83;3.25;;;18.00;99.90;;;;;;4952525;28;20053;-89
2022/10/03 01:17:15;;;;;;;16.35;3.47;;;18.00;99.90;;;;;;4971448;28;20042;-89
2022/10/03 01:20:18;;;;;;;18.00;3.55;;;18.00;99.90;;;;;;4972431;28;20018;-89
2022/10/03 01:23:21;;;;;;;17.80;3.60;;;18.00;99.90;;;;;;4969527;28;20029;-89
2022/10/03 01:26:13;;;;;;;19.27;3.28;;;18.00;99.90;;;;;;4967479;28;20027;-89
2022/10/03 01:32:07;;;;;;;16.42;3.10;;;18.00;99.90;;;;;;4971795;28;20529;-88
2022/10/03 01:34:36;;;;;;;21.67;3.58;;;17.90;99.90;;;;;;4972168;28;20165;-90
2022/10/03 01:37:22;;;;;;;15.25;3.30;;;17.90;99.90;;;;;;4972112;28;20582;-88
2022/10/03 01:40:12;;;;;;;10.95;2.92;;;18.00;99.90;;;;;;4970940;28;20023;-89
2022/10/03 01:43:04;;;;;;;15.30;3.50;;;18.00;99.90;;;;;;4971693;28;20027;-88
2022/10/03 01:45:45;;;;;;;16.63;3.78;;;18.00;99.90;;;;;;4971692;28;20026;-88
2022/10/03 01:48:23;;;;;;;20.40;5.05;;;17.90;99.90;;;;;;4953839;28;20031;-88
2022/10/03 01:50:57;;;;;;;19.35;5.47;;;17.90;99.90;;;;;;4971553;28;20487;-88
2022/10/03 01:53:32;;;;;;;19.63;5.80;;;17.90;99.90;;;;;;4971354;28;20051;-88
2022/10/03 01:56:16;;;;;;;21.45;5.93;;;17.80;99.90;;;;;;4971561;28;20038;-88
2022/10/03 01:58:59;;;;;;;17.95;5.47;;;17.80;99.90;;;;;;4971380;28;20030;-88
2022/10/03 02:01:30;;;;;;;27.05;7.35;;;17.70;99.90;;;;;;4971777;28;20034;-88
2022/10/03 02:04:14;;;;;;;26.35;7.55;;;17.70;99.90;;;;;;4971399;28;20029;-88
2022/10/03 02:07:04;;;;;;;22.33;7.05;;;17.70;99.90;;;;;;4965119;28;20035;-89
2022/10/03 02:09:44;;;;;;;21.58;6.85;;;17.70;99.90;;;;;;4969112;28;20084;-88
2022/10/03 02:12:36;;;;;;;18.45;6.88;;;17.70;99.90;;;;;;4971036;28;20089;-88
2022/10/03 02:15:15;;;;;;;22.80;4.72;;;17.80;99.90;;;;;;4965978;28;20078;-89
2022/10/03 02:17:57;;;;;;;12.35;3.38;;;17.70;99.90;;;;;;4971811;28;20023;-88
2022/10/03 02:20:35;;;;;;;13.95;3.47;;;17.70;99.90;;;;;;4971245;28;20110;-89
2022/10/03 02:23:01;;;;;;;14.45;3.08;;;17.80;99.90;;;;;;4971218;28;20511;-89
2022/10/03 02:25:34;;;;;;;17.02;3.15;;;17.80;99.90;;;;;;4969672;28;20019;-89
2022/10/03 02:28:19;;;;;;;16.08;3.47;;;17.80;99.90;;;;;;4955943;28;20046;-88
2022/10/03 02:31:13;;;;;;;19.75;3.22;;;17.80;99.90;;;;;;4960628;28;20069;-88
2022/10/03 02:34:14;;;;;;;16.95;2.97;;;17.70;99.90;;;;;;4969705;28;20454;-89
2022/10/03 02:37:19;;;;;;;12.50;3.50;;;17.80;99.90;;;;;;4971217;28;20069;-88
2022/10/03 02:40:18;;;;;;;20.75;3.55;;;17.80;99.90;;;;;;4951972;28;20043;-88
2022/10/03 02:42:59;;;;;;;15.27;3.42;;;17.90;99.90;;;;;;4950248;29;20516;-88
2022/10/03 02:45:42;;;;;;;14.10;2.85;;;17.80;99.90;;;;;;4970326;28;20073;-88
2022/10/03 02:48:45;;;;;;;14.68;3.00;;;17.80;99.90;;;;;;4952908;28;20082;-89
2022/10/03 02:51:36;;;;;;;13.57;3.05;;;17.90;99.90;;;;;;4968747;28;20030;-88
2022/10/03 02:54:38;;;;;;;14.57;3.17;;;17.80;99.90;;;;;;4975143;28;20120;-88
2022/10/03 02:57:39;;;;;;;12.05;3.50;;;17.80;99.90;;;;;;4957482;28;20035;-88
2022/10/03 03:00:10;;;;;;;17.35;4.50;;;17.80;99.90;;;;;;4974526;28;20035;-89
2022/10/03 03:02:59;;;;;;;16.98;3.30;;;17.80;99.90;;;;;;4957381;28;20442;-88
2022/10/03 03:05:43;;;;;;;15.15;3.30;;;17.80;99.90;;;;;;4971131;28;20023;-88
2022/10/03 03:08:56;;;;;;;15.95;3.25;;;17.80;99.90;;;;;;4957251;28;20093;-88
2022/10/03 03:11:37;;;;;;;15.93;3.38;;;17.80;99.90;;;;;;4974038;28;20042;-88
2022/10/03 03:14:21;;;;;;;15.82;2.97;;;17.80;99.90;;;;;;4953582;29;20031;-88
2022/10/03 03:17:02;;;;;;;12.43;2.97;;;17.70;99.90;;;;;;4969724;28;20110;-88
2022/10/03 03:19:49;;;;;;;11.23;2.80;;;17.70;99.90;;;;;;4956834;28;20558;-88
2022/10/03 03:22:24;;;;;;;11.45;2.72;;;17.70;99.90;;;;;;4974439;28;20111;-88
2022/10/03 03:25:23;;;;;;;11.52;2.75;;;17.70;99.90;;;;;;4974106;28;20111;-90
2022/10/03 03:28:19;;;;;;;9.90;2.75;;;17.70;99.90;;;;;;4970882;28;20035;-88
2022/10/03 03:31:15;;;;;;;9.18;2.40;;;17.60;99.90;;;;;;4969374;28;20022;-88
2022/10/03 03:34:13;;;;;;;9.10;2.50;;;17.70;99.90;;;;;;4974236;28;20034;-88
2022/10/03 03:36:47;;;;;;;8.30;2.42;;;17.60;99.90;;;;;;4974237;28;20022;-87
2022/10/03 03:39:39;;;;;;;9.25;2.83;;;17.60;99.90;;;;;;4956600;28;20038;-88
2022/10/03 03:42:07;;;;;;;11.98;2.70;;;17.50;99.90;;;;;;4962822;28;20038;-88
2022/10/03 03:44:57;;;;;;;11.80;2.72;;;17.50;99.90;;;;;;4967804;28;20041;-88
2022/10/03 03:47:42;;;;;;;11.43;3.05;;;17.40;99.90;;;;;;4973830;28;20031;-88
2022/10/03 03:50:29;;;;;;;8.93;2.70;;;17.40;99.90;;;;;;4972045;28;20479;-88
2022/10/03 03:53:16;;;;;;;12.68;3.28;;;17.40;99.90;;;;;;4943131;29;20074;-88
2022/10/03 03:56:20;;;;;;;10.60;3.17;;;17.40;99.90;;;;;;4934064;29;20028;-88
2022/10/03 03:58:55;;;;;;;8.20;3.08;;;17.40;99.90;;;;;;4894280;29;20032;-88
2022/10/03 04:01:48;;;;;;;9.85;2.78;;;17.40;99.90;;;;;;4945081;28;20043;-88
2022/10/03 04:04:44;;;;;;;10.35;3.20;;;17.40;99.90;;;;;;4937027;29;20035;-87
2022/10/03 04:07:35;;;;;;;13.77;3.17;;;17.40;99.90;;;;;;4951471;29;20110;-88
2022/10/03 04:10:44;;;;;;;11.45;3.20;;;17.40;99.90;;;;;;4930716;29;20512;-88
2022/10/03 04:13:19;;;;;;;8.38;3.10;;;17.40;99.90;;;;;;4933459;29;20114;-87
2022/10/03 04:18:56;;;;;;;11.50;3.20;;;17.40;99.90;;;;;;4954109;29;20019;-88
2022/10/03 04:19:23;;;;;;;11.48;2.75;;;17.40;99.90;;;;;;4899476;29;20029;-88
2022/10/03 04:21:54;;;;;;;6.57;2.60;;;17.50;99.90;;;;;;4932535;29;20121;-87
2022/10/03 04:24:35;;;;;;;6.80;2.53;;;17.50;99.90;;;;;;4953973;29;20567;-88
2022/10/03 04:27:20;;;;;;;10.43;2.63;;;17.50;99.90;;;;;;4953823;29;20051;-88
2022/10/03 04:29:52;;;;;;;8.52;2.50;;;17.50;99.90;;;;;;4953688;29;20082;-87
2022/10/03 04:32:48;;;;;;;7.82;2.83;;;17.40;99.90;;;;;;4946430;29;20558;-88
2022/10/03 04:35:29;;;;;;;11.07;2.42;;;17.40;99.90;;;;;;4953686;29;20100;-87
2022/10/03 04:38:25;;;;;;;8.70;2.70;;;17.40;99.90;;;;;;4953653;29;20024;-87
2022/10/03 04:41:05;;;;;;;12.95;2.60;;;17.30;99.90;;;;;;4950460;28;20031;-87
2022/10/03 04:43:42;;;;;;;8.52;2.45;;;17.30;99.90;;;;;;4935828;29;20089;-87
2022/10/03 04:47:05;;;;;;;6.28;2.20;;;17.30;99.90;;;;;;4953216;29;20027;-87
2022/10/03 04:49:55;;;;;;;8.68;2.45;;;17.30;99.90;;;;;;4871764;29;20026;-87
2022/10/03 04:52:36;;;;;;;9.50;2.70;;;17.40;99.90;;;;;;4862244;29;20048;-87
2022/10/03 04:55:25;;;;;;;11.95;2.38;;;17.40;99.90;;;;;;4931506;29;20647;-87
2022/10/03 04:58:09;;;;;;;7.78;2.88;;;17.40;99.90;;;;;;4949785;29;20090;-87
2022/10/03 05:01:05;;;;;;;16.23;2.72;;;17.40;99.90;;;;;;4953004;29;20031;-87
2022/10/03 05:03:42;;;;;;;7.88;2.50;;;17.30;99.90;;;;;;4949966;29;20042;-88
2022/10/03 05:06:30;;;;;;;11.00;3.00;;;17.30;99.90;;;;;;4953299;28;20027;-88
2022/10/03 05:09:18;;;;;;;6.60;2.60;;;17.30;99.90;;;;;;4952961;29;20030;-87
2022/10/03 05:12:08;;;;;;;10.07;2.78;;;17.30;99.90;;;;;;4952128;29;20035;-88
2022/10/03 05:15:16;;;;;;;11.05;2.70;;;17.20;99.90;;;;;;4953940;29;20280;-87
2022/10/03 05:17:57;;;;;;;9.15;3.33;;;17.20;99.90;;;;;;4955676;29;20341;-87
2022/10/03 05:20:29;;;;;;;11.43;2.92;;;17.20;99.90;;;;;;4953155;29;20047;-87
2022/10/03 05:23:22;;;;;;;9.48;2.70;;;17.10;99.90;;;;;;4955108;29;20447;-87
2022/10/03 05:26:00;;;;;;;11.43;3.33;;;17.10;99.90;;;;;;4952006;29;20024;-87
2022/10/03 05:28:49;;;;;;;9.82;2.75;;;17.10;99.90;;;;;;4941260;29;20183;-87
2022/10/03 05:31:43;;;;;;;13.77;3.70;;;17.10;99.90;;;;;;4963414;29;20007;-87
2022/10/03 05:34:30;;;;;;;10.00;2.80;;;17.20;99.90;;;;;;4946334;29;20145;-86
2022/10/03 05:37:13;;;;;;;10.55;2.60;;;17.20;99.90;;;;;;4946227;29;20043;-87
2022/10/03 05:39:55;;;;;;;11.88;2.70;;;17.20;99.90;;;;;;4963462;29;20251;-87
2022/10/03 05:42:42;;;;;;;10.27;3.10;;;17.20;99.90;;;;;;4961859;28;20019;-87
2022/10/03 05:45:30;;;;;;;16.67;4.13;;;17.20;99.90;;;;;;4961516;28;20023;-86
2022/10/03 05:48:16;;;;;;;11.00;2.92;;;17.10;99.90;;;;;;4955308;29;20184;-87
2022/10/03 05:51:11;;;;;;;18.65;3.42;;;17.20;99.90;;;;;;4954746;28;20086;-87
2022/10/03 05:53:56;;;;;;;10.57;3.60;;;17.10;99.90;;;;;;4958389;28;20062;-87
2022/10/03 05:57:06;;;;;;;8.35;2.60;;;17.10;99.90;;;;;;4982729;28;20053;-87
2022/10/03 05:59:42;;;;;;;9.13;3.05;;;17.10;99.90;;;;;;4979438;28;20399;-87
2022/10/03 06:02:08;;;;;;;14.77;4.07;;;17.20;99.90;;;;;;4971297;28;20023;-87
2022/10/03 06:04:58;;;;;;;8.40;3.30;;;17.20;99.90;;;;;;4971027;28;20030;-86
2022/10/03 06:07:41;;;;;;;10.75;2.75;;;17.20;99.90;;;;;;4971608;28;20254;-86
2022/10/03 06:10:25;;;;;;;11.88;3.30;;;17.20;99.90;;;;;;4965741;28;20022;-86
2022/10/03 06:13:19;;;;;;;11.68;3.35;;;17.20;99.90;;;;;;4971385;28;20194;-87
2022/10/03 06:16:16;;;;;;;10.23;3.45;;;17.20;99.90;;;;;;4971500;28;20188;-87
2022/10/03 06:19:12;;;;;;;10.45;3.20;;;17.30;99.90;;;;;;4971263;28;20035;-84
2022/10/03 06:22:17;;;;;;;7.75;2.95;;;17.30;99.90;;;;;;4971605;28;20523;-84
2022/10/03 06:25:20;;;;;;;14.40;3.20;;;17.30;99.90;;;;;;4964593;28;20019;-84
2022/10/03 06:28:17;;;;;;;6.45;3.08;;;17.40;99.90;;;;;;4972974;28;20051;-84
2022/10/03 06:30:55;;;;;;;10.18;3.60;;;17.40;99.90;;;;;;4977139;28;20033;-84
2022/10/03 06:34:12;;;;;;;8.32;3.38;;;17.40;99.90;;;;;;4961483;28;20065;-85
2022/10/03 06:37:04;;;;;;;14.15;3.38;;;17.30;99.90;;;;;;4879884;29;20033;-84
2022/10/03 06:40:12;;;;;;;9.93;3.00;;;17.40;99.90;;;;;;4971547;28;20511;-84
2022/10/03 06:42:53;;;;;;;12.50;3.25;;;17.40;99.90;;;;;;4971220;28;20030;-84
2022/10/03 06:45:44;;;;;;;8.50;3.58;;;17.40;99.90;;;;;;4972564;28;20231;-84
2022/10/03 06:48:45;;;;;;;19.02;3.72;;;17.50;99.90;;;;;;4958563;28;20035;-84
2022/10/03 06:51:42;;;;;;;13.05;3.40;;;17.50;99.90;;;;;;4973392;28;20029;-84
2022/10/03 06:54:46;;;;;;;12.00;3.25;;;17.50;99.90;;;;;;4970409;28;20054;-84
2022/10/03 06:57:46;;;;;;;10.97;3.40;;;17.40;99.90;;;;;;4959545;28;20039;-85
2022/10/03 07:00:53;;;;;;;15.20;4.47;;;17.40;99.90;;;;;;4958315;28;20030;-85
2022/10/03 07:03:44;;;;;;;15.40;4.15;;;17.50;99.90;;;;;;4895695;28;20041;-84
2022/10/03 07:06:34;;;;;;;12.73;3.70;;;17.50;99.90;;;;;;4932342;28;20377;-84
2022/10/03 07:09:24;;;;;;;9.23;3.20;;;17.50;99.90;;;;;;4973815;28;20503;-85
2022/10/03 07:12:11;;;;;;;10.15;3.38;;;17.50;99.90;;;;;;4966252;28;20550;-85
2022/10/03 07:15:13;;;;;;;11.13;3.30;;;17.60;99.90;;;;;;4973323;28;20081;-84
2022/10/03 07:18:17;;;;;;;12.48;3.80;;;17.70;99.90;;;;;;4973999;28;20030;-84
2022/10/03 07:21:16;;;;;;;11.82;3.30;;;17.70;99.90;;;;;;4957215;28;20163;-85
2022/10/03 07:24:14;;;;;;;17.35;4.03;;;17.80;99.90;;;;;;4974016;28;20030;-84
2022/10/03 07:27:26;;;;;;;11.13;3.97;;;17.70;99.90;;;;;;4971270;28;20058;-83
2022/10/03 07:30:10;;;;;;;11.38;2.83;;;17.80;99.90;;;;;;4971794;28;20019;-83
2022/10/03 07:33:09;;;;;;;13.85;3.08;;;17.80;99.90;;;;;;4970706;28;20069;-86
2022/10/03 07:38:58;;;;;;;13.60;3.17;;;17.80;99.90;;;;;;4981574;28;20387;-86
2022/10/03 07:41:50;;;;;;;9.95;2.92;;;17.90;99.90;;;;;;4978452;28;20026;-87
2022/10/03 07:44:44;;;;;;;9.23;2.67;;;18.00;99.90;;;;;;4960693;28;20034;-86
2022/10/03 07:47:46;;;;;;;10.18;2.83;;;17.90;99.90;;;;;;4976496;28;20023;-84
2022/10/03 07:50:39;;;;;;;9.75;2.88;;;18.00;99.90;;;;;;4976409;28;20019;-83
2022/10/03 07:53:30;;;;;;;8.52;2.60;;;18.10;99.90;;;;;;4961591;28;20051;-88
2022/10/03 07:56:07;;;;;;;12.80;2.83;;;18.00;99.90;;;;;;4937118;29;20023;-85
2022/10/03 07:58:45;;;;;;;9.80;2.53;;;18.00;99.90;;;;;;4955223;29;20030;-85
2022/10/03 08:01:25;;;;;;;7.22;2.33;;;18.00;99.90;;;;;;4954412;29;20109;-85
2022/10/03 08:03:50;;;;;;;12.20;2.30;;;18.10;99.90;;;;;;4956241;29;20107;-85
2022/10/03 08:06:45;;;;;;;16.13;2.47;;;18.10;99.90;;;;;;4954314;29;20102;-84
2022/10/03 08:09:28;;;;;;;8.90;2.08;;;18.20;99.90;;;;;;4952707;29;20090;-84
2022/10/03 08:12:00;;;;;;;9.77;1.80;;;18.20;99.90;;;;;;4955635;28;20086;-84
2022/10/03 08:14:48;;;;;;;10.10;2.30;;;18.40;99.90;;;;;;4954067;29;20028;-85
2022/10/03 08:17:38;;;;;;;9.73;1.98;;;18.50;99.90;;;;;;4954439;29;20059;-85
2022/10/03 08:20:13;;;;;;;11.27;2.78;;;18.60;99.90;;;;;;4961783;28;20218;-84
2022/10/03 08:23:19;;;;;;;9.13;2.58;;;18.60;99.90;;;;;;4955109;29;20033;-85
2022/10/03 08:25:53;;;;;;;14.18;2.83;;;18.80;99.90;;;;;;4852966;29;20057;-85
2022/10/03 08:28:27;;;;;;;;;;;18.90;99.90;;;;;;4943094;29;20063;-84
2022/10/03 08:31:14;;;;;;;6.85;2.22;;;18.90;99.90;;;;;;4953411;29;20295;-84
2022/10/03 08:34:03;;;;;;;11.38;2.60;;;19.10;99.90;;;;;;4953702;29;20090;-84
2022/10/03 08:36:50;;;;;;;11.63;2.10;;;19.20;99.90;;;;;;4953459;29;20374;-84
2022/10/03 08:39:27;;;;;;;9.05;2.00;;;19.40;99.90;;;;;;4956676;29;20031;-84
2022/10/03 08:42:30;;;;;;;8.40;2.10;;;19.50;99.90;;;;;;4953467;29;20538;-84
2022/10/03 08:45:02;;;;;;;8.82;1.77;;;19.60;99.90;;;;;;4949413;29;20511;-84
2022/10/03 08:47:52;;;;;;;8.90;2.03;;;19.70;99.90;;;;;;4934392;29;20035;-84
2022/10/03 08:50:26;;;;;;;7.72;1.73;;;19.70;99.90;;;;;;4953008;29;20042;-85
2022/10/03 08:52:54;;;;;;;;;;;19.60;99.90;;;;;;4964210;28;20161;-84
2022/10/03 08:55:47;;;;;;;13.98;2.13;;;19.60;99.90;;;;;;4975377;28;19921;-85
2022/10/03 08:58:38;;;;;;;7.60;1.95;;;19.60;99.90;;;;;;4969649;28;20034;-84
2022/10/03 09:01:36;;;;;;;8.85;1.73;;;19.80;99.90;;;;;;4972503;28;20499;-84
2022/10/03 09:04:08;;;;;;;9.82;1.50;;;19.90;99.90;;;;;;4972332;28;20105;-85
2022/10/03 09:07:02;;;;;;;7.75;1.60;;;20.10;99.90;;;;;;4982164;28;20069;-84
2022/10/03 09:09:52;;;;;;;4.30;1.52;;;20.20;99.90;;;;;;4965035;28;20073;-84
2022/10/03 09:12:32;;;;;;;3.88;1.20;;;20.20;99.90;;;;;;4976892;28;20030;-84
2022/10/03 09:15:14;;;;;;;6.40;1.58;;;20.00;99.90;;;;;;4979291;28;20031;-85
2022/10/03 09:18:07;;;;;;;7.50;1.50;;;20.00;99.90;;;;;;4979014;28;20107;-85
2022/10/03 09:21:14;;;;;;;9.05;1.50;;;20.10;99.90;;;;;;4974891;28;20023;-84
2022/10/03 09:23:58;;;;;;;8.93;1.52;;;20.30;99.90;;;;;;4970159;28;20031;-83
2022/10/03 09:26:58;;;;;;;9.57;1.38;;;20.40;99.90;;;;;;4971876;28;20015;-83
2022/10/03 09:29:47;;;;;;;6.35;1.38;;;20.60;99.90;;;;;;4954474;28;20064;-85
2022/10/03 09:32:40;;;;;;;9.40;1.40;;;20.70;99.90;;;;;;4973898;28;20034;-83
2022/10/03 09:35:34;;;;;;;7.68;2.28;;;20.80;99.90;;;;;;4955662;28;20514;-88
2022/10/03 09:38:35;;;;;;;5.45;1.40;;;20.70;99.90;;;;;;4975097;28;20211;-83
2022/10/03 09:41:28;;;;;;;7.85;1.30;;;20.60;99.90;;;;;;4979756;28;20027;-84
2022/10/03 09:44:16;;;;;;;8.63;2.22;;;20.50;99.90;;;;;;4967316;28;20156;-83
2022/10/03 09:47:22;;;;;;;6.45;1.33;;;20.40;99.90;;;;;;4969929;28;20031;-84
2022/10/03 09:49:51;;;;;;;6.88;1.30;;;20.30;99.90;;;;;;4971010;28;20026;-83
2022/10/03 09:52:33;;;;;;;5.38;1.38;;;20.40;99.90;;;;;;4970932;28;20039;-83
2022/10/03 09:55:33;;;;;;;5.90;1.50;;;20.40;99.90;;;;;;4971467;28;20023;-84
2022/10/03 09:58:14;;;;;;;12.75;2.00;;;20.70;99.90;;;;;;4966383;28;20019;-83
2022/10/03 10:01:01;;;;;;;5.18;1.48;;;20.80;99.90;;;;;;4970407;28;20026;-83
2022/10/03 10:03:27;;;;;;;5.63;1.55;;;20.80;99.90;;;;;;4971049;28;20086;-83
2022/10/03 10:06:02;;;;;;;14.23;1.83;;;21.00;99.90;;;;;;4970661;28;20022;-83
2022/10/03 10:09:07;;;;;;;8.60;2.05;;;21.10;99.90;;;;;;4970661;28;20042;-84
2022/10/03 10:11:47;;;;;;;;;;;21.20;99.90;;;;;;4971110;28;20197;-83
2022/10/03 10:14:16;;;;;;;6.18;1.38;;;21.20;99.90;;;;;;4950628;29;20039;-83
2022/10/03 10:16:57;;;;;;;6.35;1.55;;;21.30;99.90;;;;;;4971018;28;20026;-82
2022/10/03 10:19:35;;;;;;;6.00;1.30;;;21.20;99.90;;;;;;4971274;28;20022;-83
2022/10/03 10:22:11;;;;;;;7.43;1.27;;;21.30;99.90;;;;;;4970461;28;20459;-83
2022/10/03 10:25:12;;;;;;;10.38;1.73;;;21.40;99.90;;;;;;4977508;28;20018;-83
2022/10/03 10:28:23;;;;;;;6.28;1.52;;;21.10;99.90;;;;;;4974680;28;20062;-83
2022/10/03 10:30:53;;;;;;;7.53;1.50;;;21.00;99.90;;;;;;4982345;28;20025;-83
2022/10/03 10:33:52;;;;;;;6.32;1.27;;;21.20;99.90;;;;;;4980405;28;20270;-82
2022/10/03 10:36:36;;;;;;;10.20;1.45;;;21.50;99.90;;;;;;4972807;28;20031;-82
2022/10/03 10:39:51;;;;;;;6.07;1.38;;;21.40;99.90;;;;;;4969705;28;20107;-83
2022/10/03 10:42:36;;;;;;;7.55;1.20;;;21.60;99.90;;;;;;4971881;28;20082;-82
2022/10/03 10:45:29;;;;;;;6.10;1.30;;;21.90;99.90;;;;;;4969702;28;20081;-83
2022/10/03 10:48:04;;;;;;;6.50;1.33;;;22.10;99.90;;;;;;4975329;28;20407;-82
2022/10/03 10:50:38;;;;;;;6.97;1.33;;;22.30;99.90;;;;;;4984563;28;20065;-83
2022/10/03 10:53:42;;;;;;;8.00;1.35;;;22.30;99.90;;;;;;4969023;28;20211;-83
2022/10/03 10:56:31;;;;;;;4.22;1.33;;;22.60;99.90;;;;;;4955661;29;20031;-83
2022/10/03 10:59:16;;;;;;;5.63;1.27;;;22.80;99.90;;;;;;4953331;29;20128;-84
2022/10/03 11:02:00;;;;;;;8.73;1.58;;;22.80;99.90;;;;;;4951314;29;20035;-84
2022/10/03 11:04:46;;;;;;;8.75;1.92;;;23.00;99.90;;;;;;4951102;29;20031;-84
2022/10/03 11:07:51;;;;;;;8.73;1.40;;;23.10;99.90;;;;;;4935747;29;20042;-84
2022/10/03 11:10:35;;;;;;;5.95;1.10;;;23.10;99.90;;;;;;4942379;28;20065;-84
2022/10/03 11:13:34;;;;;;;5.88;1.10;;;22.90;99.90;;;;;;4952715;28;20044;-83
2022/10/03 11:16:25;;;;;;;4.80;1.10;;;22.70;99.90;;;;;;4953021;29;20589;-84
2022/10/03 11:19:25;;;;;;;8.80;1.85;;;22.30;99.90;;;;;;4950019;29;20244;-84
2022/10/03 11:22:11;;;;;;;4.15;1.17;;;21.90;99.90;;;;;;4917780;28;20027;-84
2022/10/03 11:24:39;;;;;;;5.32;1.65;;;21.80;99.90;;;;;;4954210;28;20039;-85
2022/10/03 11:27:33;;;;;;;4.18;0.90;;;21.70;99.90;;;;;;4955008;29;20500;-84
2022/10/03 11:30:17;;;;;;;5.20;1.17;;;21.70;99.90;;;;;;4954899;29;20023;-84
2022/10/03 11:33:20;;;;;;;3.75;1.15;;;21.80;99.90;;;;;;4950931;29;20075;-84
2022/10/03 11:36:07;;;;;;;4.20;0.95;;;22.00;99.90;;;;;;4948988;29;20042;-84
2022/10/03 11:38:57;;;;;;;4.75;1.05;;;22.20;99.90;;;;;;4955152;29;20058;-84
2022/10/03 11:41:40;;;;;;;3.58;0.75;;;22.60;99.90;;;;;;4954594;29;20667;-84
2022/10/03 11:44:15;;;;;;;4.05;0.85;;;22.80;99.90;;;;;;4949525;29;20023;-84
2022/10/03 11:46:59;;;;;;;7.07;1.25;;;22.70;99.90;;;;;;4954590;29;20171;-84
2022/10/03 11:49:56;;;;;;;9.45;2.30;;;22.60;99.90;;;;;;4954617;29;20054;-84
2022/10/03 11:52:40;;;;;;;8.15;1.65;;;22.50;99.90;;;;;;4957681;28;20134;-84
2022/10/03 11:55:25;;;;;;;7.20;1.55;;;22.40;99.90;;;;;;4974521;28;20023;-84
2022/10/03 11:58:07;;;;;;;;;;;22.20;99.90;;;;;;4977337;28;20027;-84
2022/10/03 12:00:35;;;;;;;5.47;1.23;;;22.20;99.90;;;;;;4977441;28;20398;-84
2022/10/03 12:03:09;;;;;;;5.68;1.27;;;22.30;99.90;;;;;;4975685;28;20147;-84
2022/10/03 12:05:35;;;;;;;4.68;1.02;;;22.70;99.90;;;;;;4976921;28;20085;-84
2022/10/03 12:11:28;;;;;;;3.50;1.10;;;23.20;99.90;;;;;;4984516;28;20029;-83
2022/10/03 12:14:08;;;;;;;4.82;1.45;;;23.00;99.90;;;;;;4986003;28;20046;-84
2022/10/03 12:16:48;;;;;;;3.58;1.17;;;23.00;99.90;;;;;;4978217;28;20023;-84
2022/10/03 12:19:53;;;;;;;6.15;1.27;;;23.00;99.90;;;;;;4973481;28;20226;-84
2022/10/03 12:22:47;;;;;;;6.38;1.00;;;22.70;99.90;;;;;;4972765;28;20026;-84
2022/10/03 12:25:26;;;;;;;2.85;0.90;;;22.50;99.90;;;;;;4972272;28;20045;-84
2022/10/03 12:28:22;;;;;;;4.20;1.00;;;22.50;99.90;;;;;;4973346;28;20027;-84
2022/10/03 12:31:13;;;;;;;2.47;0.70;;;22.20;99.90;;;;;;4967348;28;20023;-84
2022/10/03 12:34:01;;;;;;;2.40;0.82;;;22.10;99.90;;;;;;4973405;28;20038;-84
2022/10/03 12:36:48;;;;;;;1.92;0.75;;;22.10;99.90;;;;;;4972149;28;20037;-84
2022/10/03 12:39:45;;;;;;;3.45;0.80;;;22.30;99.90;;;;;;4968805;28;20403;-84
2022/10/03 12:42:13;;;;;;;2.47;0.80;;;22.30;99.90;;;;;;4973627;28;20097;-84
2022/10/03 12:44:52;;;;;;;4.10;0.77;;;22.40;99.90;;;;;;4973176;28;20062;-84
2022/10/03 12:47:47;;;;;;;4.05;0.70;;;22.70;99.90;;;;;;4973128;28;20018;-84
2022/10/03 12:50:30;;;;;;;3.75;0.70;;;23.00;99.90;;;;;;4973110;28;20031;-85
2022/10/03 12:53:04;;;;;;;2.90;0.73;;;23.10;99.90;;;;;;4973290;28;20047;-84
2022/10/03 12:55:39;;;;;;;4.40;1.02;;;23.30;99.90;;;;;;4973254;28;20023;-84
2022/10/03 12:58:18;;;;;;;3.88;0.70;;;23.20;99.90;;;;;;4967479;28;20042;-85
2022/10/03 13:01:04;;;;;;;3.97;0.80;;;23.10;99.90;;;;;;4972663;28;20030;-84
2022/10/03 13:03:40;;;;;;;2.35;0.73;;;22.80;99.90;;;;;;4972808;28;20023;-84
2022/10/03 13:06:20;;;;;;;5.97;1.00;;;22.50;99.90;;;;;;4959901;28;20582;-84
2022/10/03 13:08:55;;;;;;;3.97;0.90;;;22.40;99.90;;;;;;4967327;28;20118;-84
2022/10/03 13:11:35;;;;;;;4.90;0.73;;;22.40;99.90;;;;;;4972228;28;20030;-84
2022/10/03 13:14:30;;;;;;;3.75;0.82;;;22.40;99.90;;;;;;4972575;28;20061;-84
2022/10/03 13:17:06;;;;;;;1.70;0.60;;;22.50;99.90;;;;;;4972692;28;20023;-84
2022/10/03 13:19:41;;;;;;;2.70;0.60;;;22.50;99.90;;;;;;4972396;28;20403;-84
2022/10/03 13:22:28;;;;;;;5.90;0.80;;;22.60;99.90;;;;;;4972299;28;20031;-84
2022/10/03 13:25:08;;;;;;;3.90;0.65;;;22.50;99.90;;;;;;4972045;28;20368;-84
2022/10/03 13:27:45;;;;;;;5.03;0.90;;;22.60;99.90;;;;;;4966018;28;20673;-84
2022/10/03 13:30:29;;;;;;;1.48;0.60;;;22.80;99.90;;;;;;4972019;28;20019;-84
2022/10/03 13:33:06;;;;;;;2.28;0.70;;;23.10;99.90;;;;;;4971824;28;20037;-84
2022/10/03 13:38:48;;;;;;;1.42;0.30;;;23.80;99.90;;;;;;4972071;28;20053;-85
2022/10/03 13:41:52;;;;;;;2.70;0.70;;;24.10;99.90;;;;;;4972144;28;20535;-84
2022/10/03 13:44:40;;;;;;;2.45;0.60;;;24.40;99.90;;;;;;4968038;28;20113;-85
2022/10/03 13:47:27;;;;;;;3.08;1.02;;;24.30;99.90;;;;;;4971560;28;20444;-84
2022/10/03 13:50:00;;;;;;;3.72;1.05;;;24.10;99.90;;;;;;4971696;28;20026;-85
2022/10/03 13:52:45;;;;;;;3.10;1.00;;;23.60;99.90;;;;;;4964586;28;20043;-84
2022/10/03 13:55:35;;;;;;;2.88;0.82;;;23.10;99.90;;;;;;4952555;28;20042;-84
2022/10/03 13:58:37;;;;;;;5.88;1.38;;;22.70;99.90;;;;;;4946406;29;20085;-84
2022/10/03 14:01:05;;;;;;;5.40;1.38;;;22.60;99.90;;;;;;4950949;28;20031;-84
2022/10/03 14:03:40;;;;;;;6.15;1.00;;;22.50;99.90;;;;;;4952373;29;20118;-84
2022/10/03 14:06:11;;;;;;;1.77;0.75;;;22.60;99.90;;;;;;4952573;29;20027;-84
2022/10/03 14:08:59;;;;;;;2.80;0.70;;;22.50;99.90;;;;;;4951964;29;20046;-84
2022/10/03 14:11:49;;;;;;;7.00;2.22;;;22.80;99.90;;;;;;4939965;29;20020;-85
2022/10/03 14:14:33;;;;;;;6.22;2.05;;;23.00;99.90;;;;;;4950719;29;20042;-84
2022/10/03 14:17:13;;;;;;;2.00;0.90;;;23.20;99.90;;;;;;4946765;29;20020;-84
2022/10/03 14:19:47;;;;;;;4.93;1.08;;;23.40;99.90;;;;;;4936337;29;20583;-84
2022/10/03 14:22:36;;;;;;;2.33;0.80;;;23.60;99.90;;;;;;4952046;29;20118;-84
2022/10/03 14:25:17;;;;;;;5.15;1.20;;;23.60;99.90;;;;;;4951970;28;20019;-85
2022/10/03 14:27:54;;;;;;;4.80;1.40;;;23.30;99.90;;;;;;4951923;29;20401;-84
2022/10/03 14:30:54;;;;;;;6.03;1.40;;;23.30;99.90;;;;;;4952230;29;20019;-84
2022/10/03 14:33:59;;;;;;;2.10;0.90;;;23.90;99.90;;;;;;4952112;29;20190;-84
2022/10/03 14:36:33;;;;;;;4.75;1.88;;;25.20;99.90;;;;;;4950519;28;20030;-84
2022/10/03 14:39:20;;;;;;;2.95;0.75;;;26.30;99.90;;;;;;4952749;29;20027;-84